Aérodrome :
LOGIN :

S'inscrire | Disclaimer

   EN    FR    IT 

 










Légende :    VFR   VFR Marginal   IFR   IFR Intensif   IFR Très Intensif
Visi : 
Plafond : 
>= 8 km
>= 3000ft
5 à 8 km
1000 à 3000 ft
1500m à 5 km
500 à 1000 ft
800 à 1500m
200 à 500 ft
< 800m
< 200 ft
Symboles :   Orages  Brouillard  Fortes neiges  Fortes précipitations  Vent > 20 kt
SIGMETs :   Divers  Orages  Givrage  Turbulence  Onde Orograph.  Cendres Volcan.







- Altitude de l'aérodrome : 425 ft
- Code IATA : DTM


EDLW - Dortmund

DERNIER METAR :
  • 230420Z 16006KT 4700 -SN BR FEW030 SCT043 M03/M04 Q0998

METARs EXPIRÉS :
  • 230350Z AUTO 16007KT 5000 // FEW029/// SCT034/// M02/M04 Q0998
  • 230320Z AUTO 16007KT 7000 // FEW031/// SCT035/// M02/M05 Q0998
  • 230250Z AUTO 16006KT 6000 // FEW014/// SCT030/// M02/M05 Q0998
  • 230220Z AUTO 16005KT 9999 // FEW024/// SCT031/// M02/M05 Q0999
  • 230150Z AUTO 17007KT 140V200 7000 // FEW024/// SCT033/// M02/M05 Q0999

TAF TAF EDLW
Valide du 22 à 18h jusqu'au 23 à 18h UTC


221700Z 2218/2318 17013KT 9999 BKN025
BECMG 2218/2221 18008KT
TEMPO 2220/2307 4000 -SN BKN012
PROB30
TEMPO 2221/2306 2000 -SN BR BKN008
BECMG 2304/2307 08005KT
Pas de NOTAMs connus pour ce terrain.



MET'MAP, la Météo Aéronautique d'un coup d'oeil ! - Copyright ORBIFLY Décembre 2007 - Disclaimer

ORBIFLY MET'MAP TEAM :

Programmation & Développement : Alexandra Zaïnal
Conception & Développement : Baudouin d'Aumeries
Co-Programmation & Développement : Marc-Olivier Méhu
Soutien technique & logistique : Manuel Goepfert

Contact : metmap@orbifly.com




SOURCES & CREDITS :

   NOAA